sensor_id;sensor_type;location;lat;lon;timestamp;P1;durP1;ratioP1;P2;durP2;ratioP2
3543;SDS011;1786;52.870;9.578;2023-04-16T00:01:03;30.07;;;18.90;;
3543;SDS011;1786;52.870;9.578;2023-04-16T00:03:32;22.27;;;18.03;;
3543;SDS011;1786;52.870;9.578;2023-04-16T00:06:00;21.67;;;17.83;;
3543;SDS011;1786;52.870;9.578;2023-04-16T00:08:26;26.93;;;18.90;;
3543;SDS011;1786;52.870;9.578;2023-04-16T00:10:53;32.33;;;19.37;;
3543;SDS011;1786;52.870;9.578;2023-04-16T00:13:20;32.00;;;18.90;;
3543;SDS011;1786;52.870;9.578;2023-04-16T00:15:46;21.13;;;17.03;;
3543;SDS011;1786;52.870;9.578;2023-04-16T00:18:13;24.30;;;18.90;;
3543;SDS011;1786;52.870;9.578;2023-04-16T00:20:40;24.70;;;17.93;;
3543;SDS011;1786;52.870;9.578;2023-04-16T00:23:06;26.90;;;18.70;;
3543;SDS011;1786;52.870;9.578;2023-04-16T00:25:33;31.97;;;18.43;;
3543;SDS011;1786;52.870;9.578;2023-04-16T00:28:00;23.80;;;17.97;;
3543;SDS011;1786;52.870;9.578;2023-04-16T00:30:26;29.63;;;20.23;;
3543;SDS011;1786;52.870;9.578;2023-04-16T00:32:53;25.73;;;18.20;;
3543;SDS011;1786;52.870;9.578;2023-04-16T00:35:20;30.27;;;19.63;;
3543;SDS011;1786;52.870;9.578;2023-04-16T00:37:47;29.90;;;19.20;;
3543;SDS011;1786;52.870;9.578;2023-04-16T00:40:13;29.57;;;21.20;;
3543;SDS011;1786;52.870;9.578;2023-04-16T00:42:40;26.93;;;19.10;;
3543;SDS011;1786;52.870;9.578;2023-04-16T00:45:07;37.63;;;21.77;;
3543;SDS011;1786;52.870;9.578;2023-04-16T00:47:35;31.70;;;22.07;;
3543;SDS011;1786;52.870;9.578;2023-04-16T00:50:24;30.67;;;22.07;;
3543;SDS011;1786;52.870;9.578;2023-04-16T00:52:51;33.87;;;24.20;;
3543;SDS011;1786;52.870;9.578;2023-04-16T00:55:18;37.77;;;24.53;;
3543;SDS011;1786;52.870;9.578;2023-04-16T00:57:45;36.17;;;23.27;;
3543;SDS011;1786;52.870;9.578;2023-04-16T01:00:12;43.43;;;24.43;;
3543;SDS011;1786;52.870;9.578;2023-04-16T01:02:39;43.87;;;25.67;;
3543;SDS011;1786;52.870;9.578;2023-04-16T01:05:06;38.53;;;25.87;;
3543;SDS011;1786;52.870;9.578;2023-04-16T01:07:33;38.63;;;25.50;;
3543;SDS011;1786;52.870;9.578;2023-04-16T01:10:01;33.87;;;24.40;;
3543;SDS011;1786;52.870;9.578;2023-04-16T01:12:27;40.43;;;26.30;;
3543;SDS011;1786;52.870;9.578;2023-04-16T01:14:54;36.80;;;24.40;;
3543;SDS011;1786;52.870;9.578;2023-04-16T01:17:23;40.17;;;25.57;;
3543;SDS011;1786;52.870;9.578;2023-04-16T01:19:50;34.63;;;23.53;;
3543;SDS011;1786;52.870;9.578;2023-04-16T01:22:17;33.63;;;24.07;;
3543;SDS011;1786;52.870;9.578;2023-04-16T01:24:44;31.80;;;23.27;;
3543;SDS011;1786;52.870;9.578;2023-04-16T01:27:10;35.60;;;25.43;;
3543;SDS011;1786;52.870;9.578;2023-04-16T01:29:37;42.20;;;25.10;;
3543;SDS011;1786;52.870;9.578;2023-04-16T01:32:04;34.93;;;24.90;;
3543;SDS011;1786;52.870;9.578;2023-04-16T01:34:34;36.47;;;24.20;;
3543;SDS011;1786;52.870;9.578;2023-04-16T01:37:02;37.50;;;23.57;;
3543;SDS011;1786;52.870;9.578;2023-04-16T01:39:29;32.50;;;21.53;;
3543;SDS011;1786;52.870;9.578;2023-04-16T01:41:56;40.07;;;24.10;;
3543;SDS011;1786;52.870;9.578;2023-04-16T01:44:23;36.30;;;23.83;;
3543;SDS011;1786;52.870;9.578;2023-04-16T01:46:50;35.77;;;23.37;;
3543;SDS011;1786;52.870;9.578;2023-04-16T01:49:17;34.83;;;23.37;;
3543;SDS011;1786;52.870;9.578;2023-04-16T01:51:44;29.67;;;22.90;;
3543;SDS011;1786;52.870;9.578;2023-04-16T01:54:11;35.37;;;23.53;;
3543;SDS011;1786;52.870;9.578;2023-04-16T01:56:38;33.57;;;22.50;;
3543;SDS011;1786;52.870;9.578;2023-04-16T01:59:05;32.60;;;22.00;;
3543;SDS011;1786;52.870;9.578;2023-04-16T02:01:36;37.87;;;22.37;;
3543;SDS011;1786;52.870;9.578;2023-04-16T02:04:04;31.90;;;21.57;;
3543;SDS011;1786;52.870;9.578;2023-04-16T02:06:30;31.10;;;22.60;;
3543;SDS011;1786;52.870;9.578;2023-04-16T02:08:57;28.20;;;21.13;;
3543;SDS011;1786;52.870;9.578;2023-04-16T02:11:42;32.93;;;21.50;;
3543;SDS011;1786;52.870;9.578;2023-04-16T02:14:10;31.97;;;22.23;;
3543;SDS011;1786;52.870;9.578;2023-04-16T02:16:37;33.43;;;20.93;;
3543;SDS011;1786;52.870;9.578;2023-04-16T02:19:17;32.03;;;21.17;;
3543;SDS011;1786;52.870;9.578;2023-04-16T02:21:44;28.30;;;18.90;;
3543;SDS011;1786;52.870;9.578;2023-04-16T02:24:11;31.07;;;20.70;;
3543;SDS011;1786;52.870;9.578;2023-04-16T02:26:37;36.40;;;23.80;;
3543;SDS011;1786;52.870;9.578;2023-04-16T02:29:23;39.33;;;23.00;;
3543;SDS011;1786;52.870;9.578;2023-04-16T02:31:56;35.50;;;22.60;;
3543;SDS011;1786;52.870;9.578;2023-04-16T02:34:24;32.90;;;22.80;;
3543;SDS011;1786;52.870;9.578;2023-04-16T02:36:51;34.60;;;20.90;;
3543;SDS011;1786;52.870;9.578;2023-04-16T02:39:17;42.17;;;23.33;;
3543;SDS011;1786;52.870;9.578;2023-04-16T02:41:44;33.30;;;23.40;;
3543;SDS011;1786;52.870;9.578;2023-04-16T02:44:12;40.53;;;22.63;;
3543;SDS011;1786;52.870;9.578;2023-04-16T02:46:38;42.53;;;24.07;;
3543;SDS011;1786;52.870;9.578;2023-04-16T02:49:05;38.00;;;24.20;;
3543;SDS011;1786;52.870;9.578;2023-04-16T02:51:31;32.20;;;24.27;;
3543;SDS011;1786;52.870;9.578;2023-04-16T02:53:58;33.57;;;22.90;;
3543;SDS011;1786;52.870;9.578;2023-04-16T02:56:25;35.00;;;23.83;;
3543;SDS011;1786;52.870;9.578;2023-04-16T02:58:52;38.90;;;23.37;;
3543;SDS011;1786;52.870;9.578;2023-04-16T03:01:19;42.63;;;25.50;;
3543;SDS011;1786;52.870;9.578;2023-04-16T03:03:45;42.00;;;26.60;;
3543;SDS011;1786;52.870;9.578;2023-04-16T03:06:12;46.30;;;28.10;;
3543;SDS011;1786;52.870;9.578;2023-04-16T03:08:39;44.13;;;25.03;;
3543;SDS011;1786;52.870;9.578;2023-04-16T03:11:05;38.60;;;23.70;;
3543;SDS011;1786;52.870;9.578;2023-04-16T03:13:33;35.33;;;24.77;;
3543;SDS011;1786;52.870;9.578;2023-04-16T03:15:59;40.53;;;25.17;;
3543;SDS011;1786;52.870;9.578;2023-04-16T03:18:26;42.00;;;25.23;;
3543;SDS011;1786;52.870;9.578;2023-04-16T03:20:52;35.80;;;26.57;;
3543;SDS011;1786;52.870;9.578;2023-04-16T03:23:19;37.90;;;25.37;;
3543;SDS011;1786;52.870;9.578;2023-04-16T03:25:46;41.33;;;25.13;;
3543;SDS011;1786;52.870;9.578;2023-04-16T03:28:16;31.87;;;22.60;;
3543;SDS011;1786;52.870;9.578;2023-04-16T03:30:48;34.07;;;22.70;;
3543;SDS011;1786;52.870;9.578;2023-04-16T03:33:15;34.10;;;23.23;;
3543;SDS011;1786;52.870;9.578;2023-04-16T03:35:42;31.80;;;22.30;;
3543;SDS011;1786;52.870;9.578;2023-04-16T03:38:09;34.00;;;23.10;;
3543;SDS011;1786;52.870;9.578;2023-04-16T03:40:36;28.93;;;22.63;;
3543;SDS011;1786;52.870;9.578;2023-04-16T03:43:04;37.27;;;22.97;;
3543;SDS011;1786;52.870;9.578;2023-04-16T03:45:31;28.77;;;22.90;;
3543;SDS011;1786;52.870;9.578;2023-04-16T03:47:58;35.57;;;20.27;;
3543;SDS011;1786;52.870;9.578;2023-04-16T03:50:24;34.30;;;20.90;;
3543;SDS011;1786;52.870;9.578;2023-04-16T03:52:51;34.73;;;21.97;;
3543;SDS011;1786;52.870;9.578;2023-04-16T03:55:18;34.13;;;20.80;;
3543;SDS011;1786;52.870;9.578;2023-04-16T03:57:44;27.77;;;20.87;;
3543;SDS011;1786;52.870;9.578;2023-04-16T04:00:14;32.00;;;21.07;;
3543;SDS011;1786;52.870;9.578;2023-04-16T04:02:50;30.90;;;19.67;;
3543;SDS011;1786;52.870;9.578;2023-04-16T04:05:18;27.90;;;20.87;;
3543;SDS011;1786;52.870;9.578;2023-04-16T04:07:46;29.30;;;20.70;;
3543;SDS011;1786;52.870;9.578;2023-04-16T04:10:13;30.50;;;22.07;;
3543;SDS011;1786;52.870;9.578;2023-04-16T04:12:40;25.77;;;18.73;;
3543;SDS011;1786;52.870;9.578;2023-04-16T04:15:07;27.30;;;18.57;;
3543;SDS011;1786;52.870;9.578;2023-04-16T04:17:34;30.97;;;19.03;;
3543;SDS011;1786;52.870;9.578;2023-04-16T04:20:01;27.93;;;19.27;;
3543;SDS011;1786;52.870;9.578;2023-04-16T04:22:29;30.97;;;19.00;;
3543;SDS011;1786;52.870;9.578;2023-04-16T04:24:56;31.30;;;19.93;;
3543;SDS011;1786;52.870;9.578;2023-04-16T04:27:25;25.30;;;19.27;;
3543;SDS011;1786;52.870;9.578;2023-04-16T04:29:52;32.10;;;18.83;;
3543;SDS011;1786;52.870;9.578;2023-04-16T04:32:18;26.27;;;17.87;;
3543;SDS011;1786;52.870;9.578;2023-04-16T04:34:47;28.73;;;18.60;;
3543;SDS011;1786;52.870;9.578;2023-04-16T04:37:14;32.50;;;18.53;;
3543;SDS011;1786;52.870;9.578;2023-04-16T04:39:42;30.30;;;18.73;;
3543;SDS011;1786;52.870;9.578;2023-04-16T04:42:10;26.77;;;18.67;;
3543;SDS011;1786;52.870;9.578;2023-04-16T04:44:37;24.90;;;17.67;;
3543;SDS011;1786;52.870;9.578;2023-04-16T04:47:05;24.83;;;18.13;;
3543;SDS011;1786;52.870;9.578;2023-04-16T04:49:31;27.83;;;17.40;;
3543;SDS011;1786;52.870;9.578;2023-04-16T04:51:58;31.63;;;19.13;;
3543;SDS011;1786;52.870;9.578;2023-04-16T04:54:24;25.87;;;18.43;;
3543;SDS011;1786;52.870;9.578;2023-04-16T04:56:52;24.40;;;17.93;;
3543;SDS011;1786;52.870;9.578;2023-04-16T04:59:19;21.37;;;16.13;;
3543;SDS011;1786;52.870;9.578;2023-04-16T05:01:47;31.90;;;17.87;;
3543;SDS011;1786;52.870;9.578;2023-04-16T05:04:14;24.37;;;17.50;;
3543;SDS011;1786;52.870;9.578;2023-04-16T05:06:41;22.67;;;16.10;;
3543;SDS011;1786;52.870;9.578;2023-04-16T05:09:07;27.40;;;17.03;;
3543;SDS011;1786;52.870;9.578;2023-04-16T05:11:37;23.20;;;17.40;;
3543;SDS011;1786;52.870;9.578;2023-04-16T05:14:04;21.37;;;16.40;;
3543;SDS011;1786;52.870;9.578;2023-04-16T05:16:30;26.70;;;15.50;;
3543;SDS011;1786;52.870;9.578;2023-04-16T05:18:57;24.03;;;16.43;;
3543;SDS011;1786;52.870;9.578;2023-04-16T05:21:24;21.80;;;16.13;;
3543;SDS011;1786;52.870;9.578;2023-04-16T05:23:52;20.50;;;14.97;;
3543;SDS011;1786;52.870;9.578;2023-04-16T05:26:19;21.90;;;15.47;;
3543;SDS011;1786;52.870;9.578;2023-04-16T05:28:46;19.10;;;14.50;;
3543;SDS011;1786;52.870;9.578;2023-04-16T05:31:12;19.43;;;14.30;;
3543;SDS011;1786;52.870;9.578;2023-04-16T05:33:39;21.70;;;14.70;;
3543;SDS011;1786;52.870;9.578;2023-04-16T05:36:05;16.80;;;13.80;;
3543;SDS011;1786;52.870;9.578;2023-04-16T05:38:32;22.20;;;14.77;;
3543;SDS011;1786;52.870;9.578;2023-04-16T05:40:58;20.30;;;14.10;;
3543;SDS011;1786;52.870;9.578;2023-04-16T05:43:25;23.23;;;14.70;;
3543;SDS011;1786;52.870;9.578;2023-04-16T05:45:51;21.53;;;13.37;;
3543;SDS011;1786;52.870;9.578;2023-04-16T05:48:18;21.10;;;14.20;;
3543;SDS011;1786;52.870;9.578;2023-04-16T05:50:45;23.73;;;13.93;;
3543;SDS011;1786;52.870;9.578;2023-04-16T05:53:12;21.40;;;14.67;;
3543;SDS011;1786;52.870;9.578;2023-04-16T05:55:39;22.27;;;16.07;;
3543;SDS011;1786;52.870;9.578;2023-04-16T05:58:06;17.93;;;14.40;;
3543;SDS011;1786;52.870;9.578;2023-04-16T06:00:32;21.90;;;15.17;;
3543;SDS011;1786;52.870;9.578;2023-04-16T06:02:59;25.33;;;14.83;;
3543;SDS011;1786;52.870;9.578;2023-04-16T06:05:26;18.10;;;14.37;;
3543;SDS011;1786;52.870;9.578;2023-04-16T06:07:53;19.10;;;15.33;;
3543;SDS011;1786;52.870;9.578;2023-04-16T06:10:19;24.77;;;16.17;;
3543;SDS011;1786;52.870;9.578;2023-04-16T06:12:46;20.30;;;14.70;;
3543;SDS011;1786;52.870;9.578;2023-04-16T06:15:12;17.97;;;14.70;;
3543;SDS011;1786;52.870;9.578;2023-04-16T06:17:39;22.03;;;16.60;;
3543;SDS011;1786;52.870;9.578;2023-04-16T06:20:06;21.90;;;15.50;;
3543;SDS011;1786;52.870;9.578;2023-04-16T06:22:32;22.70;;;15.20;;
3543;SDS011;1786;52.870;9.578;2023-04-16T06:24:59;26.10;;;16.00;;
3543;SDS011;1786;52.870;9.578;2023-04-16T06:27:26;18.60;;;14.90;;
3543;SDS011;1786;52.870;9.578;2023-04-16T06:29:52;19.97;;;15.10;;
3543;SDS011;1786;52.870;9.578;2023-04-16T06:32:19;23.40;;;16.10;;
3543;SDS011;1786;52.870;9.578;2023-04-16T06:34:45;20.53;;;15.13;;
3543;SDS011;1786;52.870;9.578;2023-04-16T06:37:12;18.67;;;16.07;;
3543;SDS011;1786;52.870;9.578;2023-04-16T06:39:38;25.87;;;14.90;;
3543;SDS011;1786;52.870;9.578;2023-04-16T06:42:05;22.17;;;15.40;;
3543;SDS011;1786;52.870;9.578;2023-04-16T06:44:31;20.90;;;16.63;;
3543;SDS011;1786;52.870;9.578;2023-04-16T06:46:58;20.77;;;16.63;;
3543;SDS011;1786;52.870;9.578;2023-04-16T06:49:24;21.00;;;15.37;;
3543;SDS011;1786;52.870;9.578;2023-04-16T06:51:51;21.90;;;15.73;;
3543;SDS011;1786;52.870;9.578;2023-04-16T06:54:18;18.03;;;14.73;;
3543;SDS011;1786;52.870;9.578;2023-04-16T06:56:45;26.73;;;16.57;;
3543;SDS011;1786;52.870;9.578;2023-04-16T06:59:11;21.00;;;16.20;;
3543;SDS011;1786;52.870;9.578;2023-04-16T07:01:38;18.57;;;14.27;;
3543;SDS011;1786;52.870;9.578;2023-04-16T07:04:04;22.97;;;15.53;;
3543;SDS011;1786;52.870;9.578;2023-04-16T07:06:31;20.37;;;16.30;;
3543;SDS011;1786;52.870;9.578;2023-04-16T07:08:58;26.40;;;16.10;;
3543;SDS011;1786;52.870;9.578;2023-04-16T07:11:24;21.30;;;15.93;;
3543;SDS011;1786;52.870;9.578;2023-04-16T07:13:51;19.50;;;15.40;;
3543;SDS011;1786;52.870;9.578;2023-04-16T07:16:19;28.57;;;15.40;;
3543;SDS011;1786;52.870;9.578;2023-04-16T07:18:45;19.70;;;15.00;;
3543;SDS011;1786;52.870;9.578;2023-04-16T07:21:12;19.70;;;16.20;;
3543;SDS011;1786;52.870;9.578;2023-04-16T07:23:38;24.30;;;15.50;;
3543;SDS011;1786;52.870;9.578;2023-04-16T07:26:05;18.53;;;14.83;;
3543;SDS011;1786;52.870;9.578;2023-04-16T07:28:32;22.27;;;14.83;;
3543;SDS011;1786;52.870;9.578;2023-04-16T07:30:58;21.90;;;16.07;;
3543;SDS011;1786;52.870;9.578;2023-04-16T07:33:25;22.60;;;15.90;;
3543;SDS011;1786;52.870;9.578;2023-04-16T07:35:52;20.30;;;14.80;;
3543;SDS011;1786;52.870;9.578;2023-04-16T07:38:19;19.63;;;15.50;;
3543;SDS011;1786;52.870;9.578;2023-04-16T07:40:45;24.23;;;15.77;;
3543;SDS011;1786;52.870;9.578;2023-04-16T07:43:12;22.77;;;15.60;;
3543;SDS011;1786;52.870;9.578;2023-04-16T07:45:39;16.77;;;14.20;;
3543;SDS011;1786;52.870;9.578;2023-04-16T07:48:06;21.83;;;15.30;;
3543;SDS011;1786;52.870;9.578;2023-04-16T07:50:33;21.60;;;16.40;;
3543;SDS011;1786;52.870;9.578;2023-04-16T07:53:00;22.23;;;16.57;;
3543;SDS011;1786;52.870;9.578;2023-04-16T07:55:26;24.20;;;16.10;;
3543;SDS011;1786;52.870;9.578;2023-04-16T07:57:53;21.20;;;15.90;;
3543;SDS011;1786;52.870;9.578;2023-04-16T08:00:19;24.03;;;15.57;;
3543;SDS011;1786;52.870;9.578;2023-04-16T08:02:46;22.93;;;15.60;;
3543;SDS011;1786;52.870;9.578;2023-04-16T08:05:13;21.10;;;16.90;;
3543;SDS011;1786;52.870;9.578;2023-04-16T08:07:40;20.87;;;16.80;;
3543;SDS011;1786;52.870;9.578;2023-04-16T08:10:06;21.60;;;15.70;;
3543;SDS011;1786;52.870;9.578;2023-04-16T08:12:33;23.70;;;16.23;;
3543;SDS011;1786;52.870;9.578;2023-04-16T08:15:00;31.70;;;17.63;;
3543;SDS011;1786;52.870;9.578;2023-04-16T08:17:27;18.20;;;14.90;;
3543;SDS011;1786;52.870;9.578;2023-04-16T08:19:54;20.17;;;15.03;;
3543;SDS011;1786;52.870;9.578;2023-04-16T08:22:21;22.93;;;16.67;;
3543;SDS011;1786;52.870;9.578;2023-04-16T08:24:48;24.30;;;16.30;;
3543;SDS011;1786;52.870;9.578;2023-04-16T08:27:14;20.00;;;16.23;;
3543;SDS011;1786;52.870;9.578;2023-04-16T08:29:45;22.80;;;16.83;;
3543;SDS011;1786;52.870;9.578;2023-04-16T08:32:12;20.40;;;15.90;;
3543;SDS011;1786;52.870;9.578;2023-04-16T08:34:39;24.07;;;16.27;;
3543;SDS011;1786;52.870;9.578;2023-04-16T08:37:05;25.70;;;16.60;;
3543;SDS011;1786;52.870;9.578;2023-04-16T08:39:32;19.60;;;16.67;;
3543;SDS011;1786;52.870;9.578;2023-04-16T08:41:58;19.03;;;15.23;;
3543;SDS011;1786;52.870;9.578;2023-04-16T08:44:30;18.90;;;15.60;;
3543;SDS011;1786;52.870;9.578;2023-04-16T08:46:57;20.60;;;15.03;;
3543;SDS011;1786;52.870;9.578;2023-04-16T08:49:25;23.90;;;15.87;;
3543;SDS011;1786;52.870;9.578;2023-04-16T08:51:55;26.90;;;16.10;;
3543;SDS011;1786;52.870;9.578;2023-04-16T08:54:33;23.07;;;16.20;;
3543;SDS011;1786;52.870;9.578;2023-04-16T08:57:04;22.67;;;15.87;;
3543;SDS011;1786;52.870;9.578;2023-04-16T08:59:31;22.33;;;16.63;;
3543;SDS011;1786;52.870;9.578;2023-04-16T09:01:58;28.10;;;15.83;;
3543;SDS011;1786;52.870;9.578;2023-04-16T09:04:26;22.27;;;15.17;;
3543;SDS011;1786;52.870;9.578;2023-04-16T09:06:57;23.90;;;15.63;;
3543;SDS011;1786;52.870;9.578;2023-04-16T09:09:25;23.77;;;15.57;;
3543;SDS011;1786;52.870;9.578;2023-04-16T09:11:52;21.23;;;15.27;;
3543;SDS011;1786;52.870;9.578;2023-04-16T09:14:19;21.77;;;16.13;;
3543;SDS011;1786;52.870;9.578;2023-04-16T09:16:45;23.10;;;16.13;;
3543;SDS011;1786;52.870;9.578;2023-04-16T09:19:15;19.20;;;15.63;;
3543;SDS011;1786;52.870;9.578;2023-04-16T09:21:42;20.63;;;16.00;;
3543;SDS011;1786;52.870;9.578;2023-04-16T09:24:11;20.17;;;15.93;;
3543;SDS011;1786;52.870;9.578;2023-04-16T09:26:40;23.50;;;15.77;;
3543;SDS011;1786;52.870;9.578;2023-04-16T09:29:07;22.33;;;16.10;;
3543;SDS011;1786;52.870;9.578;2023-04-16T09:31:35;23.17;;;15.87;;
3543;SDS011;1786;52.870;9.578;2023-04-16T09:34:06;22.57;;;16.03;;
3543;SDS011;1786;52.870;9.578;2023-04-16T09:36:33;21.00;;;15.37;;
3543;SDS011;1786;52.870;9.578;2023-04-16T09:38:59;24.20;;;15.40;;
3543;SDS011;1786;52.870;9.578;2023-04-16T09:41:27;20.57;;;16.23;;
3543;SDS011;1786;52.870;9.578;2023-04-16T09:46:23;23.90;;;15.60;;
3543;SDS011;1786;52.870;9.578;2023-04-16T09:48:50;23.20;;;16.67;;
3543;SDS011;1786;52.870;9.578;2023-04-16T09:51:17;23.20;;;15.33;;
3543;SDS011;1786;52.870;9.578;2023-04-16T09:53:44;17.30;;;14.50;;
3543;SDS011;1786;52.870;9.578;2023-04-16T09:56:11;20.37;;;15.70;;
3543;SDS011;1786;52.870;9.578;2023-04-16T09:58:38;20.03;;;15.90;;
3543;SDS011;1786;52.870;9.578;2023-04-16T10:01:08;24.20;;;16.00;;
3543;SDS011;1786;52.870;9.578;2023-04-16T10:03:36;24.20;;;15.40;;
3543;SDS011;1786;52.870;9.578;2023-04-16T10:08:34;25.60;;;17.43;;
3543;SDS011;1786;52.870;9.578;2023-04-16T10:11:01;20.60;;;15.37;;
3543;SDS011;1786;52.870;9.578;2023-04-16T10:13:27;22.07;;;15.70;;
3543;SDS011;1786;52.870;9.578;2023-04-16T10:15:56;21.77;;;15.10;;
3543;SDS011;1786;52.870;9.578;2023-04-16T10:18:23;20.27;;;14.87;;
3543;SDS011;1786;52.870;9.578;2023-04-16T10:20:49;20.37;;;15.00;;
3543;SDS011;1786;52.870;9.578;2023-04-16T10:23:16;18.07;;;14.23;;
3543;SDS011;1786;52.870;9.578;2023-04-16T10:25:44;20.70;;;15.07;;
3543;SDS011;1786;52.870;9.578;2023-04-16T10:28:11;23.20;;;14.50;;
3543;SDS011;1786;52.870;9.578;2023-04-16T10:30:38;21.63;;;13.50;;
3543;SDS011;1786;52.870;9.578;2023-04-16T10:33:05;19.60;;;14.10;;
3543;SDS011;1786;52.870;9.578;2023-04-16T10:35:36;21.50;;;12.80;;
3543;SDS011;1786;52.870;9.578;2023-04-16T10:38:19;16.17;;;13.60;;
3543;SDS011;1786;52.870;9.578;2023-04-16T10:40:46;18.50;;;14.47;;
3543;SDS011;1786;52.870;9.578;2023-04-16T10:43:17;20.97;;;16.37;;
3543;SDS011;1786;52.870;9.578;2023-04-16T10:45:45;17.90;;;13.37;;
3543;SDS011;1786;52.870;9.578;2023-04-16T10:48:12;22.87;;;16.67;;
3543;SDS011;1786;52.870;9.578;2023-04-16T10:50:42;23.50;;;18.00;;
3543;SDS011;1786;52.870;9.578;2023-04-16T10:53:27;17.60;;;14.70;;
3543;SDS011;1786;52.870;9.578;2023-04-16T10:55:57;15.87;;;14.17;;
3543;SDS011;1786;52.870;9.578;2023-04-16T10:58:27;20.93;;;14.83;;
3543;SDS011;1786;52.870;9.578;2023-04-16T11:00:54;19.73;;;14.60;;
3543;SDS011;1786;52.870;9.578;2023-04-16T11:03:21;23.43;;;14.70;;
3543;SDS011;1786;52.870;9.578;2023-04-16T11:05:48;20.23;;;15.20;;
3543;SDS011;1786;52.870;9.578;2023-04-16T11:08:14;15.90;;;13.63;;
3543;SDS011;1786;52.870;9.578;2023-04-16T11:10:43;20.60;;;14.00;;
3543;SDS011;1786;52.870;9.578;2023-04-16T11:13:10;16.07;;;12.87;;
3543;SDS011;1786;52.870;9.578;2023-04-16T11:15:37;20.60;;;13.67;;
3543;SDS011;1786;52.870;9.578;2023-04-16T11:18:04;22.40;;;14.40;;
3543;SDS011;1786;52.870;9.578;2023-04-16T11:20:32;15.03;;;11.90;;
3543;SDS011;1786;52.870;9.578;2023-04-16T11:22:58;14.70;;;13.13;;
3543;SDS011;1786;52.870;9.578;2023-04-16T11:25:26;17.30;;;14.13;;
3543;SDS011;1786;52.870;9.578;2023-04-16T11:27:55;16.10;;;13.23;;
3543;SDS011;1786;52.870;9.578;2023-04-16T11:30:30;14.70;;;12.17;;
3543;SDS011;1786;52.870;9.578;2023-04-16T11:33:02;14.80;;;13.00;;
3543;SDS011;1786;52.870;9.578;2023-04-16T11:35:28;14.07;;;12.63;;
3543;SDS011;1786;52.870;9.578;2023-04-16T11:37:55;17.73;;;13.73;;
3543;SDS011;1786;52.870;9.578;2023-04-16T11:40:22;21.30;;;12.87;;
3543;SDS011;1786;52.870;9.578;2023-04-16T11:42:49;15.80;;;12.80;;
3543;SDS011;1786;52.870;9.578;2023-04-16T11:45:15;15.30;;;13.00;;
3543;SDS011;1786;52.870;9.578;2023-04-16T11:47:45;17.67;;;13.37;;
3543;SDS011;1786;52.870;9.578;2023-04-16T11:50:16;16.60;;;13.80;;
3543;SDS011;1786;52.870;9.578;2023-04-16T11:52:43;19.70;;;14.77;;
3543;SDS011;1786;52.870;9.578;2023-04-16T11:55:09;14.57;;;12.63;;
3543;SDS011;1786;52.870;9.578;2023-04-16T11:57:36;12.83;;;11.50;;
3543;SDS011;1786;52.870;9.578;2023-04-16T12:00:03;14.73;;;11.93;;
3543;SDS011;1786;52.870;9.578;2023-04-16T12:02:39;13.67;;;11.90;;
3543;SDS011;1786;52.870;9.578;2023-04-16T12:05:24;14.37;;;11.70;;
3543;SDS011;1786;52.870;9.578;2023-04-16T12:07:53;13.27;;;11.90;;
3543;SDS011;1786;52.870;9.578;2023-04-16T12:10:20;12.50;;;11.30;;
3543;SDS011;1786;52.870;9.578;2023-04-16T12:12:47;13.17;;;11.80;;
3543;SDS011;1786;52.870;9.578;2023-04-16T12:15:13;12.97;;;11.67;;
3543;SDS011;1786;52.870;9.578;2023-04-16T12:17:40;12.43;;;11.17;;
3543;SDS011;1786;52.870;9.578;2023-04-16T12:20:09;15.23;;;10.67;;
3543;SDS011;1786;52.870;9.578;2023-04-16T12:22:36;13.83;;;11.37;;
3543;SDS011;1786;52.870;9.578;2023-04-16T12:25:04;13.37;;;11.03;;
3543;SDS011;1786;52.870;9.578;2023-04-16T12:30:20;11.57;;;10.47;;
3543;SDS011;1786;52.870;9.578;2023-04-16T12:32:48;12.40;;;11.10;;
3543;SDS011;1786;52.870;9.578;2023-04-16T12:35:29;14.33;;;10.50;;
3543;SDS011;1786;52.870;9.578;2023-04-16T12:37:56;13.63;;;10.97;;
3543;SDS011;1786;52.870;9.578;2023-04-16T12:40:23;12.47;;;11.27;;
3543;SDS011;1786;52.870;9.578;2023-04-16T12:42:49;12.50;;;11.20;;
3543;SDS011;1786;52.870;9.578;2023-04-16T12:45:16;13.43;;;11.97;;
3543;SDS011;1786;52.870;9.578;2023-04-16T12:47:43;13.43;;;11.27;;
3543;SDS011;1786;52.870;9.578;2023-04-16T12:50:09;12.77;;;10.47;;
3543;SDS011;1786;52.870;9.578;2023-04-16T12:52:36;19.83;;;12.47;;
3543;SDS011;1786;52.870;9.578;2023-04-16T12:55:03;12.67;;;11.30;;
3543;SDS011;1786;52.870;9.578;2023-04-16T12:57:30;12.30;;;11.00;;
3543;SDS011;1786;52.870;9.578;2023-04-16T12:59:57;11.10;;;10.00;;
3543;SDS011;1786;52.870;9.578;2023-04-16T13:02:23;13.60;;;11.00;;
3543;SDS011;1786;52.870;9.578;2023-04-16T13:04:53;14.87;;;12.20;;
3543;SDS011;1786;52.870;9.578;2023-04-16T13:07:20;11.63;;;10.43;;
3543;SDS011;1786;52.870;9.578;2023-04-16T13:09:47;14.10;;;11.10;;
3543;SDS011;1786;52.870;9.578;2023-04-16T13:12:15;14.23;;;10.67;;
3543;SDS011;1786;52.870;9.578;2023-04-16T13:14:41;12.93;;;11.63;;
3543;SDS011;1786;52.870;9.578;2023-04-16T13:17:10;13.67;;;11.40;;
3543;SDS011;1786;52.870;9.578;2023-04-16T13:19:37;13.57;;;10.97;;
3543;SDS011;1786;52.870;9.578;2023-04-16T13:22:03;15.63;;;11.13;;
3543;SDS011;1786;52.870;9.578;2023-04-16T13:24:30;13.63;;;11.30;;
3543;SDS011;1786;52.870;9.578;2023-04-16T13:26:56;14.13;;;11.70;;
3543;SDS011;1786;52.870;9.578;2023-04-16T13:29:23;18.50;;;12.50;;
3543;SDS011;1786;52.870;9.578;2023-04-16T13:31:50;14.70;;;12.07;;
3543;SDS011;1786;52.870;9.578;2023-04-16T13:34:17;13.43;;;12.07;;
3543;SDS011;1786;52.870;9.578;2023-04-16T13:36:43;17.20;;;12.10;;
3543;SDS011;1786;52.870;9.578;2023-04-16T13:39:10;13.73;;;11.43;;
3543;SDS011;1786;52.870;9.578;2023-04-16T13:41:37;16.20;;;13.23;;
3543;SDS011;1786;52.870;9.578;2023-04-16T13:44:04;14.23;;;12.30;;
3543;SDS011;1786;52.870;9.578;2023-04-16T13:46:31;14.17;;;12.63;;
3543;SDS011;1786;52.870;9.578;2023-04-16T13:48:58;13.63;;;12.07;;
3543;SDS011;1786;52.870;9.578;2023-04-16T13:51:25;16.63;;;12.73;;
3543;SDS011;1786;52.870;9.578;2023-04-16T13:53:53;15.57;;;13.83;;
3543;SDS011;1786;52.870;9.578;2023-04-16T13:56:21;14.80;;;12.33;;
3543;SDS011;1786;52.870;9.578;2023-04-16T13:58:47;14.13;;;12.33;;
3543;SDS011;1786;52.870;9.578;2023-04-16T14:01:14;13.60;;;12.20;;
3543;SDS011;1786;52.870;9.578;2023-04-16T14:03:42;18.20;;;12.13;;
3543;SDS011;1786;52.870;9.578;2023-04-16T14:06:09;18.93;;;12.40;;
3543;SDS011;1786;52.870;9.578;2023-04-16T14:08:36;14.43;;;11.93;;
3543;SDS011;1786;52.870;9.578;2023-04-16T14:11:03;15.40;;;12.73;;
3543;SDS011;1786;52.870;9.578;2023-04-16T14:13:31;13.70;;;12.00;;
3543;SDS011;1786;52.870;9.578;2023-04-16T14:15:58;14.30;;;12.10;;
3543;SDS011;1786;52.870;9.578;2023-04-16T14:18:24;12.50;;;11.20;;
3543;SDS011;1786;52.870;9.578;2023-04-16T14:20:51;14.97;;;11.67;;
3543;SDS011;1786;52.870;9.578;2023-04-16T14:23:18;15.53;;;11.27;;
3543;SDS011;1786;52.870;9.578;2023-04-16T14:25:44;13.73;;;12.33;;
3543;SDS011;1786;52.870;9.578;2023-04-16T14:28:10;11.00;;;10.00;;
3543;SDS011;1786;52.870;9.578;2023-04-16T14:30:40;12.33;;;9.90;;
3543;SDS011;1786;52.870;9.578;2023-04-16T14:33:07;9.83;;;8.93;;
3543;SDS011;1786;52.870;9.578;2023-04-16T14:35:33;16.23;;;10.50;;
3543;SDS011;1786;52.870;9.578;2023-04-16T14:38:01;12.20;;;11.10;;
3543;SDS011;1786;52.870;9.578;2023-04-16T14:40:27;10.67;;;9.60;;
3543;SDS011;1786;52.870;9.578;2023-04-16T14:42:54;15.13;;;11.57;;
3543;SDS011;1786;52.870;9.578;2023-04-16T14:45:21;17.43;;;13.30;;
3543;SDS011;1786;52.870;9.578;2023-04-16T14:47:48;12.27;;;11.00;;
3543;SDS011;1786;52.870;9.578;2023-04-16T14:50:16;11.70;;;10.50;;
3543;SDS011;1786;52.870;9.578;2023-04-16T14:52:42;13.00;;;11.03;;
3543;SDS011;1786;52.870;9.578;2023-04-16T14:55:09;15.63;;;11.70;;
3543;SDS011;1786;52.870;9.578;2023-04-16T14:57:35;13.43;;;11.27;;